createdAt,value
2023-02-13T00:02:03.876Z,17.20
2023-02-13T00:04:30.519Z,18.90
2023-02-13T00:06:57.260Z,18.83
2023-02-13T00:09:23.980Z,19.07
2023-02-13T00:11:50.677Z,18.10
2023-02-13T00:14:17.579Z,19.47
2023-02-13T00:16:44.325Z,18.60
2023-02-13T00:19:10.958Z,18.87
2023-02-13T00:21:37.608Z,19.63
2023-02-13T00:24:04.613Z,18.37
2023-02-13T00:26:31.282Z,20.00
2023-02-13T00:28:57.917Z,18.03
2023-02-13T00:31:24.668Z,18.97
2023-02-13T00:33:51.448Z,19.30
2023-02-13T00:36:21.852Z,18.50
2023-02-13T00:38:48.948Z,19.47
2023-02-13T00:41:17.401Z,20.27
2023-02-13T00:43:45.215Z,19.47
2023-02-13T00:46:12.036Z,19.43
2023-02-13T00:48:39.440Z,18.03
2023-02-13T00:51:06.767Z,18.77
2023-02-13T00:53:34.119Z,17.17
2023-02-13T00:56:01.460Z,19.17
2023-02-13T00:58:28.465Z,17.43
2023-02-13T01:00:56.376Z,19.13
2023-02-13T01:03:23.833Z,19.93
2023-02-13T01:05:50.743Z,19.40
2023-02-13T01:08:18.875Z,17.93
2023-02-13T01:10:47.811Z,18.73
2023-02-13T01:13:16.663Z,16.60
2023-02-13T01:15:43.369Z,16.73
2023-02-13T01:18:12.786Z,17.77
2023-02-13T01:20:39.484Z,16.40
2023-02-13T01:23:06.112Z,16.23
2023-02-13T01:25:32.705Z,16.63
2023-02-13T01:27:59.371Z,17.10
2023-02-13T01:30:26.070Z,15.63
2023-02-13T01:32:52.827Z,15.87
2023-02-13T01:35:19.542Z,15.43
2023-02-13T01:37:46.146Z,15.37
2023-02-13T01:40:14.465Z,16.73
2023-02-13T01:42:41.278Z,16.40
2023-02-13T01:45:44.536Z,16.87
2023-02-13T01:48:23.946Z,16.73
2023-02-13T01:51:02.004Z,16.20
2023-02-13T01:53:39.875Z,17.30
2023-02-13T01:56:22.224Z,17.27
2023-02-13T01:58:53.194Z,19.70
2023-02-13T02:01:21.547Z,15.47
2023-02-13T02:04:09.594Z,15.37
2023-02-13T02:06:42.110Z,16.40
2023-02-13T02:09:16.492Z,15.53
2023-02-13T02:12:21.221Z,16.40
2023-02-13T02:14:49.271Z,15.90
2023-02-13T02:17:16.903Z,17.20
2023-02-13T02:20:02.256Z,15.83
2023-02-13T02:22:53.645Z,15.73
2023-02-13T02:26:03.011Z,14.93
2023-02-13T02:28:38.697Z,16.20
2023-02-13T02:31:37.452Z,14.60
2023-02-13T02:34:33.550Z,14.47
2023-02-13T02:37:27.561Z,14.90
2023-02-13T02:40:23.714Z,15.40
2023-02-13T02:42:53.447Z,15.83
2023-02-13T02:45:33.191Z,15.53
2023-02-13T02:48:25.209Z,18.83
2023-02-13T02:51:11.190Z,16.83
2023-02-13T02:54:32.382Z,17.30
2023-02-13T02:57:07.660Z,18.27
2023-02-13T02:59:55.861Z,15.63
2023-02-13T03:02:41.771Z,15.13
2023-02-13T03:05:45.847Z,16.20
2023-02-13T03:08:13.113Z,16.03
2023-02-13T03:10:58.591Z,17.00
2023-02-13T03:13:47.286Z,15.87
2023-02-13T03:16:42.919Z,16.07
2023-02-13T03:19:49.858Z,15.87
2023-02-13T03:22:30.470Z,16.80
2023-02-13T03:24:59.986Z,15.83
2023-02-13T03:28:44.333Z,16.43
2023-02-13T03:31:45.696Z,15.07
2023-02-13T03:34:20.745Z,18.17
2023-02-13T03:37:13.687Z,17.23
2023-02-13T03:40:05.569Z,15.77
2023-02-13T03:42:58.289Z,17.87
2023-02-13T03:45:48.431Z,15.13
2023-02-13T03:48:37.954Z,15.23
2023-02-13T03:51:07.432Z,17.17
2023-02-13T03:53:36.712Z,18.17
2023-02-13T03:56:22.890Z,19.07
2023-02-13T03:59:12.766Z,17.63
2023-02-13T04:01:39.967Z,18.20
2023-02-13T04:04:19.197Z,16.77
2023-02-13T04:06:57.701Z,15.87
2023-02-13T04:09:27.342Z,18.20
2023-02-13T04:11:53.959Z,17.87
2023-02-13T04:14:29.022Z,15.37
2023-02-13T04:17:22.909Z,15.00
2023-02-13T04:19:49.695Z,14.20
2023-02-13T04:22:16.688Z,13.43
2023-02-13T04:24:43.392Z,14.27
2023-02-13T04:27:23.172Z,13.17
2023-02-13T04:29:52.688Z,13.03
2023-02-13T04:32:19.296Z,13.23
2023-02-13T04:34:45.997Z,13.47
2023-02-13T04:37:12.748Z,13.00
2023-02-13T04:39:39.409Z,14.53
2023-02-13T04:42:06.113Z,13.53
2023-02-13T04:44:32.880Z,14.47
2023-02-13T04:46:59.496Z,12.93
2023-02-13T04:49:26.144Z,13.80
2023-02-13T04:51:52.776Z,13.87
2023-02-13T04:54:19.438Z,13.37
2023-02-13T04:56:46.074Z,14.27
2023-02-13T04:59:12.714Z,14.20
2023-02-13T05:01:39.472Z,13.33
2023-02-13T05:04:06.428Z,13.37
2023-02-13T05:06:33.102Z,15.17
2023-02-13T05:08:59.717Z,14.60
2023-02-13T05:11:26.364Z,15.43
2023-02-13T05:13:53.006Z,14.87
2023-02-13T05:16:20.487Z,15.70
2023-02-13T05:18:47.165Z,15.57
2023-02-13T05:21:35.330Z,15.50
2023-02-13T05:24:02.049Z,15.23
2023-02-13T05:26:28.709Z,16.13
2023-02-13T05:29:13.921Z,15.83
2023-02-13T05:31:40.709Z,15.63
2023-02-13T05:34:07.538Z,14.43
2023-02-13T05:36:34.434Z,16.13
2023-02-13T05:39:01.516Z,17.77
2023-02-13T05:41:28.160Z,18.60
2023-02-13T05:43:55.008Z,15.40
2023-02-13T05:46:21.703Z,14.93
2023-02-13T05:48:48.349Z,16.20
2023-02-13T05:51:15.094Z,16.93
2023-02-13T05:53:41.802Z,17.63
2023-02-13T05:56:08.487Z,18.13
2023-02-13T05:58:35.252Z,17.37
2023-02-13T06:01:02.307Z,16.27
2023-02-13T06:03:30.972Z,15.63
2023-02-13T06:05:58.111Z,14.90
2023-02-13T06:08:25.559Z,16.53
2023-02-13T06:10:52.247Z,15.90
2023-02-13T06:13:19.240Z,16.20
2023-02-13T06:15:46.027Z,14.63
2023-02-13T06:18:12.719Z,16.17
2023-02-13T06:20:39.509Z,15.90
2023-02-13T06:23:06.166Z,13.13
2023-02-13T06:25:35.714Z,15.33
2023-02-13T06:28:03.537Z,14.13
2023-02-13T06:30:31.010Z,14.60
2023-02-13T06:32:57.692Z,14.13
2023-02-13T06:35:24.406Z,15.60
2023-02-13T06:37:51.096Z,13.23
2023-02-13T06:40:17.998Z,13.93
2023-02-13T06:42:46.010Z,13.10
2023-02-13T06:45:13.619Z,12.77
2023-02-13T06:47:47.924Z,12.17
2023-02-13T06:50:16.575Z,12.60
2023-02-13T06:52:51.420Z,11.33
2023-02-13T06:55:18.868Z,11.83
2023-02-13T06:57:45.741Z,12.50
2023-02-13T07:00:14.643Z,13.43
2023-02-13T07:02:43.047Z,12.73
2023-02-13T07:05:11.382Z,11.73
2023-02-13T07:07:41.393Z,14.23
2023-02-13T07:10:11.737Z,14.70
2023-02-13T07:12:38.546Z,15.33
2023-02-13T07:15:05.978Z,14.17
2023-02-13T07:17:33.990Z,18.27
2023-02-13T07:20:00.753Z,17.27
2023-02-13T07:22:27.451Z,18.03
2023-02-13T07:24:54.113Z,18.73
2023-02-13T07:27:20.828Z,17.40
2023-02-13T07:29:47.504Z,16.87
2023-02-13T07:32:14.686Z,17.93
2023-02-13T07:34:55.851Z,17.07
2023-02-13T07:37:31.404Z,17.43
2023-02-13T07:39:58.131Z,16.40
2023-02-13T07:42:24.894Z,17.23
2023-02-13T07:44:51.553Z,16.63
2023-02-13T07:47:20.080Z,15.13
2023-02-13T07:49:46.950Z,15.20
2023-02-13T07:52:13.592Z,16.13
2023-02-13T07:54:47.288Z,16.47
2023-02-13T07:57:17.809Z,14.30
2023-02-13T07:59:45.350Z,16.27
2023-02-13T08:02:14.239Z,14.67
2023-02-13T08:04:41.740Z,14.63
2023-02-13T08:07:08.471Z,15.23
2023-02-13T08:09:54.009Z,14.97
2023-02-13T08:12:20.727Z,16.40
2023-02-13T08:14:47.636Z,16.13
2023-02-13T08:17:14.418Z,16.57
2023-02-13T08:19:41.171Z,17.63
2023-02-13T08:22:07.971Z,17.27
2023-02-13T08:24:34.752Z,17.37
2023-02-13T08:27:01.525Z,18.23
2023-02-13T08:29:28.197Z,17.93
2023-02-13T08:31:55.007Z,17.03
2023-02-13T08:34:21.794Z,17.47
2023-02-13T08:36:48.499Z,16.67
2023-02-13T08:39:15.199Z,16.73
2023-02-13T08:41:42.352Z,16.83
2023-02-13T08:44:10.450Z,16.40
2023-02-13T08:46:37.407Z,16.77
2023-02-13T08:49:04.185Z,16.83
2023-02-13T08:51:30.941Z,16.87
2023-02-13T08:53:57.858Z,14.77
2023-02-13T08:56:24.504Z,16.30
2023-02-13T08:58:51.293Z,15.07
2023-02-13T09:01:18.257Z,15.07
2023-02-13T09:03:45.060Z,14.33
2023-02-13T09:06:11.743Z,14.10
2023-02-13T09:08:38.699Z,14.00
2023-02-13T09:11:07.330Z,12.50
2023-02-13T09:13:36.897Z,13.77
2023-02-13T09:16:08.579Z,13.30
2023-02-13T09:18:35.556Z,14.23
2023-02-13T09:21:08.156Z,13.40
2023-02-13T09:23:37.049Z,13.50
2023-02-13T09:26:06.489Z,13.50
2023-02-13T09:28:34.650Z,13.17
2023-02-13T09:31:08.985Z,13.47
2023-02-13T09:33:36.589Z,13.43
2023-02-13T09:36:13.428Z,12.57
2023-02-13T09:38:42.808Z,12.27
2023-02-13T09:41:23.119Z,12.97
2023-02-13T09:43:51.743Z,13.07
2023-02-13T09:46:31.190Z,12.33
2023-02-13T09:49:01.728Z,12.07
2023-02-13T09:51:29.081Z,11.77
2023-02-13T09:54:00.377Z,11.03
2023-02-13T09:57:00.903Z,11.80
2023-02-13T09:59:46.671Z,10.50
2023-02-13T10:02:43.897Z,11.23
2023-02-13T10:05:16.777Z,11.57
2023-02-13T10:08:06.728Z,11.20
2023-02-13T10:10:39.391Z,11.20
2023-02-13T10:13:24.764Z,10.83
2023-02-13T10:16:02.100Z,11.23
2023-02-13T10:18:54.300Z,11.10
2023-02-13T10:21:24.741Z,11.27
2023-02-13T10:23:59.625Z,12.40
2023-02-13T10:26:42.662Z,11.43
2023-02-13T10:29:31.191Z,11.17
2023-02-13T10:32:02.744Z,10.77
2023-02-13T10:34:37.865Z,10.67
2023-02-13T10:37:14.604Z,11.03
2023-02-13T10:39:44.057Z,10.80
2023-02-13T10:42:38.467Z,11.20
2023-02-13T10:45:51.798Z,11.63
2023-02-13T10:51:45.229Z,10.87
2023-02-13T10:54:19.218Z,11.00
2023-02-13T10:57:06.913Z,10.60
2023-02-13T10:59:47.589Z,10.93
2023-02-13T11:02:23.138Z,10.60
2023-02-13T11:04:52.419Z,9.80
2023-02-13T11:07:23.309Z,10.53
2023-02-13T11:09:53.119Z,10.37
2023-02-13T11:12:27.685Z,10.47
2023-02-13T11:15:00.878Z,10.20
2023-02-13T11:17:32.511Z,9.97
2023-02-13T11:20:01.523Z,11.10
2023-02-13T11:22:42.547Z,10.20
2023-02-13T11:25:22.252Z,10.77
2023-02-13T11:27:51.247Z,11.33
2023-02-13T11:30:24.204Z,10.10
2023-02-13T11:33:17.415Z,11.87
2023-02-13T11:35:46.339Z,10.87
2023-02-13T11:38:14.446Z,10.97
2023-02-13T11:41:02.147Z,11.07
2023-02-13T11:43:35.276Z,10.20
2023-02-13T11:46:17.388Z,10.23
2023-02-13T11:48:55.506Z,10.90
2023-02-13T11:51:45.087Z,11.10
2023-02-13T11:54:45.172Z,12.17
2023-02-13T11:57:23.679Z,12.20
2023-02-13T11:59:54.000Z,11.77
2023-02-13T12:02:24.805Z,11.37
2023-02-13T12:04:54.240Z,11.27
2023-02-13T12:07:27.772Z,11.37
2023-02-13T12:10:19.024Z,11.70
2023-02-13T12:12:59.719Z,12.07
2023-02-13T12:15:30.061Z,11.77
2023-02-13T12:18:20.633Z,11.77
2023-02-13T12:21:09.136Z,11.40
2023-02-13T12:24:02.502Z,11.47
2023-02-13T12:26:53.417Z,11.40
2023-02-13T12:29:28.824Z,10.77
2023-02-13T12:32:42.905Z,11.33
2023-02-13T12:35:34.338Z,11.00
2023-02-13T12:38:26.985Z,10.83
2023-02-13T12:41:05.790Z,10.67
2023-02-13T12:43:47.525Z,10.13
2023-02-13T12:46:22.078Z,10.17
2023-02-13T12:49:16.678Z,9.77
2023-02-13T12:52:01.345Z,9.87
2023-02-13T12:54:46.526Z,10.57
2023-02-13T12:57:38.876Z,9.90
2023-02-13T13:00:08.492Z,9.50
2023-02-13T13:02:44.030Z,8.87
2023-02-13T13:05:32.621Z,9.67
2023-02-13T13:08:18.227Z,10.10
2023-02-13T13:10:53.265Z,9.20
2023-02-13T13:13:25.825Z,9.33
2023-02-13T13:16:06.639Z,9.00
2023-02-13T13:18:42.387Z,9.03
2023-02-13T13:21:18.649Z,9.13
2023-02-13T13:24:09.691Z,9.63
2023-02-13T13:26:49.750Z,9.70
2023-02-13T13:29:16.717Z,9.73
2023-02-13T13:31:58.363Z,9.37
2023-02-13T13:34:27.062Z,9.73
2023-02-13T13:37:19.094Z,8.97
2023-02-13T13:40:13.507Z,9.57
2023-02-13T13:42:55.658Z,9.13
2023-02-13T13:45:30.416Z,9.40
2023-02-13T13:48:09.166Z,11.87
2023-02-13T13:50:42.609Z,11.67
2023-02-13T13:53:23.458Z,9.87
2023-02-13T13:55:50.211Z,9.47
2023-02-13T13:58:43.149Z,9.43
2023-02-13T14:01:26.823Z,9.17
2023-02-13T14:04:03.635Z,9.23
2023-02-13T14:07:05.956Z,8.73
2023-02-13T14:09:43.379Z,9.43
2023-02-13T14:12:25.342Z,8.47
2023-02-13T14:14:53.959Z,7.83
2023-02-13T14:17:45.577Z,7.43
2023-02-13T14:20:49.914Z,8.00
2023-02-13T14:23:50.202Z,8.37
2023-02-13T14:26:17.157Z,7.83
2023-02-13T14:28:49.850Z,8.83
2023-02-13T14:31:27.518Z,8.53
2023-02-13T14:33:59.607Z,7.83
2023-02-13T14:36:35.500Z,7.87
2023-02-13T14:39:07.997Z,8.00
2023-02-13T14:42:01.929Z,8.67
2023-02-13T14:44:45.069Z,7.57
2023-02-13T14:47:19.795Z,8.23
2023-02-13T14:49:49.417Z,7.97
2023-02-13T14:52:22.051Z,8.03
2023-02-13T14:54:56.646Z,7.90
2023-02-13T14:57:53.415Z,8.37
2023-02-13T15:00:32.092Z,8.13
2023-02-13T15:03:27.134Z,8.63
2023-02-13T15:05:57.089Z,8.23
2023-02-13T15:08:28.949Z,7.93
2023-02-13T15:11:04.603Z,8.67
2023-02-13T15:13:40.620Z,8.37
2023-02-13T15:16:08.790Z,7.90
2023-02-13T15:18:52.315Z,7.97
2023-02-13T15:21:22.867Z,6.70
2023-02-13T15:23:57.578Z,7.60
2023-02-13T15:26:28.611Z,8.33
2023-02-13T15:29:05.857Z,8.07
2023-02-13T15:31:34.847Z,8.90
2023-02-13T15:34:01.594Z,8.07
2023-02-13T15:36:41.473Z,8.90
2023-02-13T15:39:18.590Z,8.70
2023-02-13T15:41:50.067Z,8.87
2023-02-13T15:44:20.800Z,8.70
2023-02-13T15:46:49.079Z,9.73
2023-02-13T15:49:18.781Z,9.97
2023-02-13T15:51:46.036Z,9.37
2023-02-13T15:54:27.568Z,8.93
2023-02-13T15:56:57.663Z,9.30
2023-02-13T15:59:29.012Z,8.70
2023-02-13T16:01:58.570Z,9.23
2023-02-13T16:04:25.571Z,8.60
2023-02-13T16:06:54.884Z,8.87
2023-02-13T16:09:35.446Z,8.77
2023-02-13T16:12:20.965Z,8.67
2023-02-13T16:15:02.691Z,9.70
2023-02-13T16:17:38.427Z,9.80
2023-02-13T16:20:08.466Z,10.07
2023-02-13T16:23:13.219Z,9.90
2023-02-13T16:25:41.494Z,9.70
2023-02-13T16:28:23.241Z,9.67
2023-02-13T16:31:01.404Z,8.70
2023-02-13T16:33:33.115Z,10.90
2023-02-13T16:36:10.058Z,10.07
2023-02-13T16:38:45.279Z,9.97
2023-02-13T16:41:17.833Z,9.53
2023-02-13T16:43:54.488Z,10.53
2023-02-13T16:46:24.284Z,10.43
2023-02-13T16:48:57.158Z,10.47
2023-02-13T16:51:30.120Z,11.03
2023-02-13T16:54:24.970Z,10.40
2023-02-13T16:57:02.334Z,10.43
2023-02-13T16:59:47.199Z,10.40
2023-02-13T17:02:30.599Z,10.70
2023-02-13T17:05:09.617Z,10.97
2023-02-13T17:07:44.971Z,10.57
2023-02-13T17:10:20.002Z,10.40
2023-02-13T17:12:47.460Z,10.57
2023-02-13T17:15:17.515Z,10.80
2023-02-13T17:17:45.593Z,11.40
2023-02-13T17:20:21.037Z,11.83
2023-02-13T17:22:50.498Z,10.90
2023-02-13T17:25:22.321Z,10.50
2023-02-13T17:27:57.535Z,11.07
2023-02-13T17:30:29.812Z,11.77
2023-02-13T17:33:10.303Z,11.67
2023-02-13T17:35:37.266Z,11.07
2023-02-13T17:38:06.147Z,11.27
2023-02-13T17:40:32.939Z,12.33
2023-02-13T17:42:59.995Z,12.60
2023-02-13T17:45:29.789Z,12.43
2023-02-13T17:47:59.531Z,11.87
2023-02-13T17:50:31.274Z,13.07
2023-02-13T17:53:01.367Z,11.73
2023-02-13T17:55:30.662Z,12.20
2023-02-13T17:57:58.740Z,12.53
2023-02-13T18:00:31.307Z,12.13
2023-02-13T18:02:59.384Z,12.97
2023-02-13T18:05:26.635Z,12.20
2023-02-13T18:07:53.645Z,13.37
2023-02-13T18:10:24.269Z,13.23
2023-02-13T18:12:51.971Z,12.50
2023-02-13T18:15:19.157Z,12.73
2023-02-13T18:17:46.926Z,12.63
2023-02-13T18:20:17.360Z,11.73
2023-02-13T18:22:44.424Z,12.93
2023-02-13T18:25:12.096Z,12.70
2023-02-13T18:27:39.035Z,13.00
2023-02-13T18:30:06.979Z,12.90
2023-02-13T18:32:33.893Z,12.60
2023-02-13T18:35:00.929Z,12.30
2023-02-13T18:37:29.471Z,13.73
2023-02-13T18:39:56.909Z,12.60
2023-02-13T18:42:23.651Z,12.67
2023-02-13T18:44:50.541Z,13.10
2023-02-13T18:47:17.492Z,13.07
2023-02-13T18:49:46.397Z,12.90
2023-02-13T18:52:13.161Z,12.50
2023-02-13T18:54:40.211Z,13.47
2023-02-13T18:57:07.285Z,13.57
2023-02-13T18:59:34.194Z,14.87
2023-02-13T19:02:03.115Z,13.10
2023-02-13T19:04:30.988Z,14.00
2023-02-13T19:06:57.739Z,13.33
2023-02-13T19:09:24.445Z,13.67
2023-02-13T19:11:51.647Z,12.87
2023-02-13T19:14:18.604Z,13.73
2023-02-13T19:16:45.310Z,14.77
2023-02-13T19:19:11.996Z,14.67
2023-02-13T19:21:39.250Z,14.13
2023-02-13T19:24:08.900Z,14.90
2023-02-13T19:26:36.246Z,14.97
2023-02-13T19:29:03.563Z,14.10
2023-02-13T19:31:32.171Z,14.93
2023-02-13T19:34:00.451Z,14.40
2023-02-13T19:36:30.025Z,14.53
2023-02-13T19:39:03.425Z,14.97
2023-02-13T19:41:31.011Z,14.93
2023-02-13T19:43:58.552Z,14.77
2023-02-13T19:46:32.646Z,14.07
2023-02-13T19:49:00.360Z,15.00
2023-02-13T19:51:29.652Z,14.57
2023-02-13T19:53:57.647Z,14.47
2023-02-13T19:56:27.195Z,13.93
2023-02-13T19:58:54.314Z,14.17
2023-02-13T20:01:22.930Z,13.73
2023-02-13T20:03:50.472Z,14.10
2023-02-13T20:06:31.294Z,14.47
2023-02-13T20:09:00.123Z,14.27
2023-02-13T20:11:27.023Z,13.97
2023-02-13T20:13:55.615Z,13.93
2023-02-13T20:16:23.198Z,14.10
2023-02-13T20:18:50.425Z,14.03
2023-02-13T20:21:18.011Z,15.57
2023-02-13T20:23:50.307Z,14.20
2023-02-13T20:26:17.441Z,15.30
2023-02-13T20:28:45.907Z,14.50
2023-02-13T20:31:14.474Z,14.67
2023-02-13T20:33:42.097Z,14.33
2023-02-13T20:36:14.161Z,14.53
2023-02-13T20:38:41.706Z,13.10
2023-02-13T20:41:14.959Z,12.57
2023-02-13T20:43:42.144Z,13.70
2023-02-13T20:46:09.748Z,13.97
2023-02-13T20:48:37.890Z,13.97
2023-02-13T20:51:08.056Z,13.97
2023-02-13T20:53:35.187Z,14.57
2023-02-13T20:56:16.523Z,13.37
2023-02-13T20:58:44.383Z,14.40
2023-02-13T21:01:22.971Z,13.77
2023-02-13T21:03:53.812Z,14.47
2023-02-13T21:06:27.392Z,13.73
2023-02-13T21:08:54.482Z,13.43
2023-02-13T21:11:22.118Z,13.67
2023-02-13T21:13:49.278Z,13.67
2023-02-13T21:16:22.940Z,13.50
2023-02-13T21:18:55.511Z,13.63
2023-02-13T21:21:23.898Z,14.27
2023-02-13T21:24:01.162Z,12.80
2023-02-13T21:26:28.827Z,14.30
2023-02-13T21:28:55.888Z,14.20
2023-02-13T21:31:30.307Z,13.30
2023-02-13T21:34:08.111Z,13.43
2023-02-13T21:36:36.159Z,14.53
2023-02-13T21:39:03.837Z,12.83
2023-02-13T21:41:30.588Z,14.23
2023-02-13T21:43:57.307Z,14.60
2023-02-13T21:46:29.974Z,14.73
2023-02-13T21:48:59.380Z,15.70
2023-02-13T21:51:28.795Z,15.93
2023-02-13T21:53:57.500Z,16.13
2023-02-13T21:56:27.021Z,15.53
2023-02-13T21:58:54.252Z,15.37
2023-02-13T22:01:30.965Z,15.37
2023-02-13T22:04:01.275Z,15.20
2023-02-13T22:06:29.974Z,15.73
2023-02-13T22:09:07.471Z,16.13
2023-02-13T22:11:35.201Z,16.43
2023-02-13T22:14:03.969Z,15.40
2023-02-13T22:16:32.915Z,16.40
2023-02-13T22:19:00.176Z,15.97
2023-02-13T22:21:37.578Z,15.40
2023-02-13T22:24:04.509Z,14.73
2023-02-13T22:26:33.753Z,15.53
2023-02-13T22:29:12.345Z,14.20
2023-02-13T22:31:39.500Z,16.83
2023-02-13T22:34:06.698Z,15.03
2023-02-13T22:36:34.934Z,17.57
2023-02-13T22:39:01.849Z,16.13
2023-02-13T22:41:28.713Z,16.00
2023-02-13T22:43:55.487Z,15.47
2023-02-13T22:46:27.987Z,16.47
2023-02-13T22:48:55.251Z,15.97
2023-02-13T22:51:31.186Z,15.83
2023-02-13T22:53:58.977Z,16.47
2023-02-13T22:56:27.402Z,17.17
2023-02-13T22:58:54.107Z,17.53
2023-02-13T23:01:23.755Z,18.13
2023-02-13T23:03:50.570Z,16.37
2023-02-13T23:06:19.043Z,16.07
2023-02-13T23:08:45.730Z,16.07
2023-02-13T23:11:33.842Z,16.10
2023-02-13T23:14:01.235Z,16.33
2023-02-13T23:16:28.366Z,16.83
2023-02-13T23:18:56.991Z,16.40
2023-02-13T23:21:25.103Z,15.83
2023-02-13T23:23:52.106Z,16.17
2023-02-13T23:26:19.012Z,17.90
2023-02-13T23:28:45.709Z,15.43
2023-02-13T23:31:14.570Z,15.27
2023-02-13T23:33:41.337Z,15.47
2023-02-13T23:36:08.258Z,15.13
2023-02-13T23:38:34.981Z,15.37
2023-02-13T23:41:08.897Z,15.93
2023-02-13T23:43:35.689Z,16.23
2023-02-13T23:46:06.807Z,15.43
2023-02-13T23:48:34.104Z,16.53
2023-02-13T23:51:01.568Z,16.33
2023-02-13T23:53:28.786Z,15.20
2023-02-13T23:55:55.639Z,15.77
2023-02-13T23:58:22.375Z,15.33
